Time;durP1;ratioP1;P1;durP2;ratioP2;P2;SDS_P1;SDS_P2;PMS_P1;PMS_P2;Temp;Humidity;BMP_temperature;BMP_pressure;BME280_temperature;BME280_humidity;BME280_pressure;Samples;Min_cycle;Max_cycle;Signal;HPM_P1;HPM_P2
2021/07/22 00:00:26;;;;;;;9.68;6.35;;;;;;;10.84;71.08;100169.72;1638191;85;21006;-79
2021/07/22 00:02:54;;;;;;;15.35;7.92;;;;;;;10.80;71.04;100174.66;1656174;85;21059;-79
2021/07/22 00:05:21;;;;;;;9.73;6.50;;;;;;;10.76;71.18;100175.72;1665096;85;20950;-78
2021/07/22 00:07:48;;;;;;;8.25;6.08;;;;;;;10.73;71.22;100182.38;1655961;85;20935;-78
2021/07/22 00:10:15;;;;;;;13.07;6.67;;;;;;;10.71;71.32;100181.58;1652790;85;22536;-79
2021/07/22 00:12:43;;;;;;;7.72;5.08;;;;;;;10.67;71.39;100178.67;1662137;85;21892;-78
2021/07/22 00:15:10;;;;;;;;;;;;;;;10.65;71.43;100183.13;1658832;85;21628;-78
2021/07/22 00:17:37;;;;;;;10.85;5.97;;;;;;;10.58;71.70;100179.05;1663329;84;20105;-78
2021/07/22 00:20:06;;;;;;;8.95;5.80;;;;;;;10.51;71.59;100181.91;1655890;85;20966;-78
2021/07/22 00:22:38;;;;;;;9.28;6.37;;;;;;;10.47;71.78;100172.52;1649369;86;20971;-78
2021/07/22 00:25:08;;;;;;;16.48;8.15;;;;;;;10.44;71.84;100176.52;1651648;86;20994;-78
2021/07/22 00:27:35;;;;;;;11.22;6.40;;;;;;;10.42;71.94;100177.06;1647654;86;21102;-78
2021/07/22 00:30:02;;;;;;;7.80;5.95;;;;;;;10.41;72.08;100183.17;1648702;85;20991;-78
2021/07/22 00:32:29;;;;;;;13.60;7.72;;;;;;;10.41;72.20;100180.56;1645218;86;21003;-78
2021/07/22 00:34:55;;;;;;;11.03;8.28;;;;;;;10.42;72.27;100179.67;1662749;85;21599;-78
2021/07/22 00:37:22;;;;;;;8.40;5.97;;;;;;;10.43;72.32;100177.91;1666710;85;20999;-78
2021/07/22 00:39:48;;;;;;;12.10;6.37;;;;;;;10.42;72.40;100180.98;1656226;85;21138;-78
2021/07/22 00:42:15;;;;;;;12.43;6.20;;;;;;;10.42;72.46;100178.38;1664934;85;21042;-79
2021/07/22 00:44:42;;;;;;;9.00;6.55;;;;;;;10.42;72.49;100177.06;1662547;84;21078;-78
2021/07/22 00:47:08;;;;;;;13.50;8.05;;;;;;;10.42;72.61;100177.50;1653379;85;21529;-78
2021/07/22 00:49:35;;;;;;;10.63;6.50;;;;;;;10.44;72.63;100177.83;1655169;85;21022;-78
2021/07/22 00:52:01;;;;;;;15.10;7.67;;;;;;;10.46;72.70;100178.63;1661154;85;21489;-78
2021/07/22 00:54:28;;;;;;;14.65;6.80;;;;;;;10.50;72.81;100176.73;1648199;86;20943;-79
2021/07/22 00:56:54;;;;;;;9.73;6.90;;;;;;;10.56;72.86;100180.87;1626916;86;21088;-78
2021/07/22 00:59:21;;;;;;;8.05;5.97;;;;;;;10.56;72.84;100170.42;1661147;84;21107;-78
2021/07/22 01:01:47;;;;;;;14.15;6.75;;;;;;;10.51;72.85;100167.55;1650970;86;21018;-78
2021/07/22 01:04:14;;;;;;;8.83;6.70;;;;;;;10.47;72.97;100169.91;1650903;85;21561;-79
2021/07/22 01:06:41;;;;;;;7.45;6.33;;;;;;;10.42;73.04;100171.84;1651338;85;21378;-78
2021/07/22 01:09:07;;;;;;;7.12;4.83;;;;;;;10.39;73.11;100168.05;1649748;86;21564;-78
2021/07/22 01:11:34;;;;;;;10.32;5.90;;;;;;;10.38;73.19;100167.64;1650213;86;21047;-78
2021/07/22 01:14:01;;;;;;;10.03;7.43;;;;;;;10.37;73.31;100167.25;1645566;86;20971;-79
2021/07/22 01:16:27;;;;;;;8.60;5.08;;;;;;;10.37;73.37;100168.56;1656230;84;21103;-78
2021/07/22 01:18:54;;;;;;;9.35;5.53;;;;;;;10.35;73.35;100169.06;1656548;85;21067;-79
2021/07/22 01:21:22;;;;;;;9.98;6.80;;;;;;;10.32;73.43;100165.27;1656481;85;21524;-78
2021/07/22 01:23:49;;;;;;;8.53;5.35;;;;;;;10.33;73.49;100164.35;1654178;85;21027;-78
2021/07/22 01:26:16;;;;;;;7.27;5.57;;;;;;;10.35;73.56;100164.30;1656809;85;20971;-78
2021/07/22 01:28:42;;;;;;;12.78;7.30;;;;;;;10.34;73.70;100167.38;1656307;85;21261;-78
2021/07/22 01:31:09;;;;;;;9.60;6.90;;;;;;;10.32;73.77;100165.27;1651706;85;21604;-79
2021/07/22 01:33:35;;;;;;;12.95;5.20;;;;;;;10.30;73.81;100160.56;1654403;85;20990;-78
2021/07/22 01:36:02;;;;;;;9.65;6.50;;;;;;;10.29;73.85;100165.40;1657829;85;21010;-78
2021/07/22 01:38:29;;;;;;;8.83;5.25;;;;;;;10.29;73.88;100160.17;1656818;85;21002;-79
2021/07/22 01:40:56;;;;;;;9.08;5.87;;;;;;;10.32;73.95;100161.82;1650394;85;21438;-79
2021/07/22 01:43:23;;;;;;;8.53;5.85;;;;;;;10.35;73.97;100162.54;1654888;85;20987;-78
2021/07/22 01:45:49;;;;;;;8.43;5.28;;;;;;;10.37;74.05;100171.17;1659956;85;21050;-79
2021/07/22 01:48:16;;;;;;;7.70;5.85;;;;;;;10.40;74.13;100164.52;1653139;85;22479;-78
2021/07/22 01:50:43;;;;;;;8.93;5.58;;;;;;;10.43;74.22;100163.55;1656562;85;20954;-79
2021/07/22 01:53:09;;;;;;;6.83;5.45;;;;;;;10.46;74.33;100162.13;1628021;86;21544;-79
2021/07/22 01:55:36;;;;;;;9.45;5.12;;;;;;;10.47;74.43;100164.69;1659894;84;21046;-78
2021/07/22 01:58:03;;;;;;;7.12;5.30;;;;;;;10.44;74.43;100167.39;1629024;86;20949;-79
2021/07/22 02:00:29;;;;;;;7.37;5.72;;;;;;;10.43;74.45;100157.02;1652635;85;21077;-78
2021/07/22 02:02:56;;;;;;;9.20;4.83;;;;;;;10.44;74.52;100164.78;1626660;87;21074;-78
2021/07/22 02:05:22;;;;;;;8.37;5.17;;;;;;;10.42;74.51;100161.41;1652693;85;22337;-78
2021/07/22 02:07:49;;;;;;;10.78;6.10;;;;;;;10.39;74.59;100156.30;1654752;85;21667;-78
2021/07/22 02:10:16;;;;;;;8.25;5.45;;;;;;;10.34;74.62;100159.55;1660294;85;21047;-79
2021/07/22 02:12:42;;;;;;;6.40;5.13;;;;;;;10.33;74.75;100166.96;1657705;85;21556;-79
2021/07/22 02:15:11;;;;;;;7.58;4.92;;;;;;;10.31;74.73;100163.59;1624603;86;21267;-79
2021/07/22 02:17:37;;;;;;;5.50;4.22;;;;;;;10.30;74.84;100163.17;1648253;85;21061;-79
2021/07/22 02:20:06;;;;;;;6.63;5.07;;;;;;;10.31;74.91;100163.59;1649789;86;21084;-78
2021/07/22 02:22:33;;;;;;;6.50;4.90;;;;;;;10.28;74.83;100168.93;1644232;86;20934;-78
2021/07/22 02:24:59;;;;;;;7.17;4.85;;;;;;;10.21;74.83;100169.56;1645697;86;20994;-79
2021/07/22 02:27:26;;;;;;;6.70;5.20;;;;;;;10.17;74.87;100169.77;1658074;84;20990;-78
2021/07/22 02:29:53;;;;;;;6.57;5.17;;;;;;;10.18;75.06;100172.76;1621470;87;21464;-78
2021/07/22 02:32:19;;;;;;;6.97;4.57;;;;;;;10.18;75.04;100178.83;1625021;86;20963;-79
2021/07/22 02:34:46;;;;;;;6.20;4.67;;;;;;;10.16;75.09;100182.39;1653746;85;22244;-79
2021/07/22 02:37:13;;;;;;;7.35;4.58;;;;;;;10.13;75.12;100182.52;1627932;86;21400;-78
2021/07/22 02:39:40;;;;;;;11.22;5.45;;;;;;;10.08;75.22;100173.12;1661554;84;21471;-79
2021/07/22 02:42:07;;;;;;;7.33;5.03;;;;;;;10.06;75.32;100175.39;1651642;86;21347;-78
2021/07/22 02:44:38;;;;;;;7.17;5.03;;;;;;;10.07;75.42;100181.84;1654306;85;21046;-78
2021/07/22 02:47:03;;;;;;;6.33;5.50;;;;;;;10.08;75.51;100178.34;1653560;85;21010;-79
2021/07/22 02:49:31;;;;;;;5.87;4.47;;;;;;;10.08;75.57;100178.34;1660869;85;21080;-78
2021/07/22 02:51:58;;;;;;;8.80;5.50;;;;;;;10.11;75.58;100173.89;1661369;85;21540;-78
2021/07/22 02:54:25;;;;;;;9.90;4.77;;;;;;;10.14;75.71;100173.34;1664252;84;21568;-79
2021/07/22 02:56:51;;;;;;;6.67;5.15;;;;;;;10.19;75.71;100169.23;1631541;85;21071;-79
2021/07/22 02:59:18;;;;;;;7.43;4.80;;;;;;;10.26;75.76;100175.47;1658092;85;20982;-78
2021/07/22 03:01:45;;;;;;;6.43;4.70;;;;;;;10.37;75.79;100175.09;1635880;85;21231;-79
2021/07/22 03:04:12;;;;;;;8.20;5.65;;;;;;;10.44;75.76;100172.61;1642896;85;21005;-79
2021/07/22 03:06:42;;;;;;;7.30;4.57;;;;;;;10.51;75.69;100178.00;1640069;85;22017;-79
2021/07/22 03:09:09;;;;;;;8.33;4.50;;;;;;;10.60;75.80;100172.02;1636292;85;20991;-79
2021/07/22 03:11:36;;;;;;;7.20;4.10;;;;;;;10.76;75.94;100170.48;1643634;85;21001;-79
2021/07/22 03:14:03;;;;;;;7.60;4.35;;;;;;;11.04;76.03;100169.35;1638045;85;21567;-79
2021/07/22 03:16:30;;;;;;;6.20;3.90;;;;;;;11.55;76.35;100169.33;1647356;85;21028;-80
2021/07/22 03:18:56;;;;;;;12.53;4.53;;;;;;;12.11;76.05;100177.72;1644531;85;22444;-80
2021/07/22 03:21:23;;;;;;;9.75;4.70;;;;;;;12.58;75.67;100170.70;1643251;85;21064;-80
2021/07/22 03:23:50;;;;;;;11.80;4.25;;;;;;;13.04;75.43;100173.66;1643652;85;21030;-80
2021/07/22 03:26:18;;;;;;;9.07;4.23;;;;;;;13.39;74.80;100171.91;1644657;85;20979;-80
2021/07/22 03:28:45;;;;;;;8.85;3.98;;;;;;;13.72;74.68;100174.13;1640485;85;21019;-80
2021/07/22 03:31:11;;;;;;;5.80;3.85;;;;;;;14.06;74.56;100175.35;1612770;85;21087;-80
2021/07/22 03:33:38;;;;;;;10.55;4.58;;;;;;;14.43;74.38;100172.00;1641739;85;21018;-80
2021/07/22 03:36:05;;;;;;;10.03;4.70;;;;;;;14.77;74.07;100163.55;1648367;85;21581;-80
2021/07/22 03:38:32;;;;;;;15.72;4.72;;;;;;;15.08;73.68;100165.70;1643005;85;20978;-81
2021/07/22 03:40:59;;;;;;;;;;;;;;;15.35;73.50;100165.86;1646573;85;21094;-80
2021/07/22 03:43:25;;;;;;;16.13;5.30;;;;;;;15.64;73.23;100164.92;1646187;85;21486;-80
2021/07/22 03:46:01;;;;;;;10.23;4.50;;;;;;;16.05;73.66;100162.03;1640286;85;21497;-80
2021/07/22 03:48:28;;;;;;;13.45;4.85;;;;;;;16.54;73.50;100166.78;1642980;85;21046;-80
2021/07/22 03:50:55;;;;;;;19.32;5.72;;;;;;;16.95;72.86;100169.84;1642625;85;20942;-80
2021/07/22 03:53:21;;;;;;;14.58;4.95;;;;;;;17.18;72.79;100169.13;1642893;85;20968;-80
2021/07/22 03:55:48;;;;;;;12.82;5.45;;;;;;;17.60;72.77;100165.83;1641910;85;21469;-80
2021/07/22 03:58:15;;;;;;;13.05;5.55;;;;;;;18.17;73.06;100159.68;1645710;85;21097;-80
2021/07/22 04:00:41;;;;;;;11.20;5.62;;;;;;;18.93;72.91;100161.16;1644156;84;21007;-80
2021/07/22 04:03:08;;;;;;;9.38;4.87;;;;;;;19.51;72.22;100166.47;1685040;84;21050;-80
2021/07/22 04:05:35;;;;;;;9.95;5.72;;;;;;;20.07;72.19;100163.84;1688888;84;20985;-81
2021/07/22 04:08:01;;;;;;;16.27;5.70;;;;;;;20.54;71.60;100162.69;1674245;84;21481;-81
2021/07/22 04:10:29;;;;;;;9.60;5.53;;;;;;;21.01;71.02;100162.37;1660719;84;21030;-81
2021/07/22 04:12:59;;;;;;;22.62;6.45;;;;;;;21.40;70.62;100166.16;1646395;85;21090;-80
2021/07/22 04:15:27;;;;;;;17.57;6.17;;;;;;;21.86;70.37;100159.50;1667227;84;21841;-80
2021/07/22 04:17:55;;;;;;;14.43;5.53;;;;;;;21.90;69.30;100154.75;1640311;85;21448;-78
2021/07/22 04:20:25;;;;;;;23.42;6.67;;;;;;;21.24;68.64;100157.28;1642219;86;21107;-78
2021/07/22 04:22:55;;;;;;;19.12;6.55;;;;;;;20.70;69.00;100156.97;1651545;85;21055;-78
2021/07/22 04:25:22;;;;;;;14.05;6.42;;;;;;;20.28;68.75;100151.52;1654437;84;20999;-78
2021/07/22 04:27:48;;;;;;;14.13;7.70;;;;;;;19.64;68.27;100156.62;1672418;85;21710;-78
2021/07/22 04:30:15;;;;;;;22.07;7.75;;;;;;;19.19;68.73;100159.21;1658452;84;20991;-78
2021/07/22 04:32:41;;;;;;;16.23;7.17;;;;;;;19.22;68.69;100156.33;1676329;85;21449;-77
2021/07/22 04:35:10;;;;;;;14.10;6.37;;;;;;;19.01;68.37;100154.33;1680930;85;20971;-77
2021/07/22 04:37:36;;;;;;;17.90;6.72;;;;;;;18.76;68.40;100156.67;1681271;85;20999;-77
2021/07/22 04:40:06;;;;;;;20.72;6.78;;;;;;;19.34;68.95;100155.37;1681754;85;20959;-77
2021/07/22 04:42:34;;;;;;;31.52;7.58;;;;;;;20.11;68.48;100152.05;1679693;84;20975;-78
2021/07/22 04:45:01;;;;;;;16.77;7.30;;;;;;;20.79;67.82;100145.58;1679462;84;21114;-79
2021/07/22 04:47:27;;;;;;;;;;;;;;;21.44;67.57;100148.13;1669872;84;20927;-79
2021/07/22 04:49:54;;;;;;;;;;;;;;;22.09;66.63;100149.49;1680099;84;20162;-79
2021/07/22 04:52:20;;;;;;;22.37;6.90;;;;;;;22.61;66.21;100144.52;1662718;84;20428;-79
2021/07/22 04:54:47;;;;;;;21.02;7.05;;;;;;;22.97;66.01;100145.16;1663968;84;21073;-79
2021/07/22 04:57:13;;;;;;;14.55;6.58;;;;;;;23.31;65.75;100144.67;1668167;84;21049;-79
2021/07/22 04:59:40;;;;;;;25.17;7.80;;;;;;;23.95;66.00;100138.22;1676413;84;20982;-79
2021/07/22 05:02:07;;;;;;;31.05;7.17;;;;;;;24.59;65.40;100141.27;1653662;84;21529;-79
2021/07/22 05:04:33;;;;;;;;;;;;;;;24.91;64.73;100145.20;1641838;85;21061;-79
2021/07/22 05:07:00;;;;;;;28.65;7.03;;;;;;;25.19;64.04;100144.09;1632871;87;20163;-79
2021/07/22 05:09:26;;;;;;;14.50;5.80;;;;;;;25.78;64.92;100144.77;1635952;85;21120;-79
2021/07/22 05:11:54;;;;;;;;;;;;;;;26.34;64.19;100136.61;1646210;85;21037;-79
2021/07/22 05:14:21;;;;;;;20.20;5.90;;;;;;;26.84;63.25;100135.69;1639570;86;20121;-80
2021/07/22 05:16:48;;;;;;;16.20;5.35;;;;;;;27.12;62.83;100129.97;1639634;86;21023;-79
2021/07/22 05:19:15;;;;;;;13.90;5.83;;;;;;;27.40;62.73;100127.26;1640060;86;21021;-80
2021/07/22 05:21:43;;;;;;;15.83;6.12;;;;;;;27.47;61.50;100127.91;1642244;86;21169;-79
2021/07/22 05:24:09;;;;;;;29.65;5.78;;;;;;;27.67;61.69;100123.33;1639980;86;21017;-80
2021/07/22 05:26:40;;;;;;;34.63;6.22;;;;;;;28.02;60.59;100119.00;1639299;86;20980;-80
2021/07/22 05:29:07;;;;;;;39.18;7.45;;;;;;;28.15;60.88;100121.95;1638588;86;21168;-79
2021/07/22 05:31:34;;;;;;;47.00;7.28;;;;;;;28.49;60.13;100122.92;1639513;86;21021;-79
2021/07/22 05:34:00;;;;;;;39.30;26.87;;;;;;;28.53;59.41;100124.73;1638738;86;21524;-79
2021/07/22 05:36:27;;;;;;;14.13;8.08;;;;;;;28.75;59.12;100118.52;1641576;86;21065;-83
2021/07/22 05:38:53;;;;;;;52.43;7.47;;;;;;;28.99;58.68;100118.81;1638951;86;21754;-84
2021/07/22 05:41:20;;;;;;;21.65;5.90;;;;;;;29.05;57.71;100113.25;1640148;86;21094;-84
2021/07/22 05:43:47;;;;;;;22.87;5.70;;;;;;;29.02;57.40;100114.93;1640479;86;21033;-83
2021/07/22 05:46:19;;;;;;;25.27;5.20;;;;;;;29.14;57.02;100114.83;1634949;86;22416;-83
2021/07/22 05:48:47;;;;;;;26.10;5.50;;;;;;;29.00;55.82;100112.92;1635424;86;21522;-83
2021/07/22 05:51:15;;;;;;;29.27;6.78;;;;;;;28.89;55.56;100111.51;1636311;87;21576;-83
2021/07/22 05:53:42;;;;;;;13.22;4.60;;;;;;;29.02;55.33;100116.27;1639978;87;21099;-83
2021/07/22 05:56:10;;;;;;;23.25;5.45;;;;;;;28.86;53.85;100116.42;1638175;87;21130;-83
2021/07/22 05:58:37;;;;;;;52.33;8.35;;;;;;;28.66;54.46;100124.98;1605743;87;21964;-83
2021/07/22 06:01:06;;;;;;;28.85;6.10;;;;;;;28.91;54.09;100122.09;1609696;88;21007;-83
2021/07/22 06:03:33;;;;;;;19.57;6.00;;;;;;;28.94;53.33;100110.97;1672508;85;21929;-84
2021/07/22 06:06:00;;;;;;;19.40;4.70;;;;;;;28.97;53.38;100114.64;1649734;85;21492;-83
2021/07/22 06:08:27;;;;;;;15.78;5.10;;;;;;;29.20;53.42;100116.78;1645239;84;21037;-84
2021/07/22 06:10:55;;;;;;;16.25;4.90;;;;;;;29.48;52.89;100115.31;1662779;84;21473;-83
2021/07/22 06:13:22;;;;;;;14.75;4.72;;;;;;;29.49;52.11;100112.42;1668033;84;20947;-83
2021/07/22 06:15:49;;;;;;;7.50;3.67;;;;;;;29.64;52.01;100107.91;1666194;84;21007;-83
2021/07/22 06:18:16;;;;;;;5.50;3.95;;;;;;;29.84;51.33;100116.75;1683107;84;21488;-83
2021/07/22 06:20:44;;;;;;;8.75;4.53;;;;;;;29.02;48.94;100116.27;1615260;85;21155;-83
2021/07/22 06:23:11;;;;;;;45.38;8.18;;;;;;;28.01;49.52;100111.97;1663955;84;21159;-82
2021/07/22 06:25:38;;;;;;;31.80;5.85;;;;;;;28.00;50.54;100114.30;1653581;84;20964;-82
2021/07/22 06:28:05;;;;;;;25.40;6.33;;;;;;;27.86;50.14;100118.05;1634956;86;21043;-83
2021/07/22 06:30:32;;;;;;;27.45;6.33;;;;;;;27.85;49.99;100111.02;1669084;84;21030;-82
2021/07/22 06:32:59;;;;;;;23.80;5.85;;;;;;;27.96;50.02;100117.02;1667115;84;21003;-82
2021/07/22 06:35:26;;;;;;;12.00;4.65;;;;;;;27.76;49.43;100117.42;1667716;84;21585;-83
2021/07/22 06:37:53;;;;;;;10.90;4.60;;;;;;;27.75;50.02;100113.04;1646207;84;20984;-86
2021/07/22 06:40:20;;;;;;;14.23;4.35;;;;;;;28.19;49.93;100117.89;1667570;84;21527;-84
2021/07/22 06:42:47;;;;;;;11.03;4.75;;;;;;;28.33;49.31;100115.78;1666902;84;21094;-82
2021/07/22 06:45:14;;;;;;;11.33;5.03;;;;;;;27.88;48.99;100121.41;1669139;84;20965;-83
2021/07/22 06:47:41;;;;;;;19.05;5.28;;;;;;;27.51;48.40;100116.67;1671345;84;21438;-83
2021/07/22 06:50:10;;;;;;;23.47;5.85;;;;;;;26.87;48.33;100124.63;1662541;84;21702;-84
2021/07/22 06:52:38;;;;;;;43.68;7.22;;;;;;;26.42;48.45;100125.92;1664076;84;21066;-84
2021/07/22 06:55:07;;;;;;;43.42;6.50;;;;;;;26.34;48.91;100123.22;1672419;84;21037;-83
2021/07/22 06:57:35;;;;;;;15.50;5.37;;;;;;;26.37;48.70;100122.89;1664079;84;20997;-84
2021/07/22 07:00:04;;;;;;;32.85;5.80;;;;;;;26.45;48.82;100121.56;1662911;84;21122;-83
2021/07/22 07:02:31;;;;;;;20.62;5.55;;;;;;;26.35;48.67;100124.89;1681988;84;20993;-82
2021/07/22 07:04:59;;;;;;;8.45;4.80;;;;;;;26.02;47.51;100132.86;1676427;84;21276;-83
2021/07/22 07:07:25;;;;;;;14.10;4.75;;;;;;;25.26;47.37;100130.11;1649916;85;21541;-83
2021/07/22 07:09:53;;;;;;;10.25;6.22;;;;;;;24.70;47.96;100122.34;1684284;84;21004;-83
2021/07/22 07:12:20;;;;;;;7.67;5.15;;;;;;;24.59;48.60;100122.58;1636374;85;21130;-83
2021/07/22 07:14:46;;;;;;;49.42;7.80;;;;;;;24.70;48.54;100113.47;1643157;85;21064;-84
2021/07/22 07:17:13;;;;;;;;;;;;;;;24.82;48.50;100119.43;1665189;84;21010;-83
2021/07/22 07:19:39;;;;;;;;;;;;;;;24.74;48.50;100121.03;1651121;85;20124;-84
2021/07/22 07:22:05;;;;;;;;;;;;;;;24.70;48.87;100114.33;1684511;84;20168;-83
2021/07/22 07:24:32;;;;;;;42.93;7.67;;;;;;;24.71;48.43;100110.66;1681769;84;21680;-83
2021/07/22 07:26:59;;;;;;;;;;;;;;;24.66;48.77;100115.61;1673854;84;21678;-84
2021/07/22 07:29:25;;;;;;;11.33;4.97;;;;;;;24.68;48.92;100110.97;1669646;84;20144;-82
2021/07/22 07:32:00;;;;;;;53.33;7.92;;;;;;;24.90;48.78;100111.45;1641751;85;20961;-81
2021/07/22 07:34:27;;;;;;;44.33;6.53;;;;;;;24.85;48.82;100116.45;1678016;84;21570;-82
2021/07/22 07:36:56;;;;;;;14.18;6.20;;;;;;;24.86;48.91;100115.44;1674647;84;21926;-85
2021/07/22 07:39:23;;;;;;;6.20;5.50;;;;;;;25.06;49.32;100111.58;1639291;84;21308;-83
2021/07/22 07:41:50;;;;;;;10.32;5.80;;;;;;;25.48;49.37;100109.52;1681091;84;21009;-84
2021/07/22 07:44:17;;;;;;;10.35;6.40;;;;;;;25.84;49.12;100108.03;1644355;84;21057;-85
2021/07/22 07:46:44;;;;;;;7.12;5.40;;;;;;;26.18;48.88;100107.12;1649189;84;21053;-80
2021/07/22 07:49:11;;;;;;;;;;;;;;;26.15;48.51;100111.47;1676568;83;21126;-82
2021/07/22 07:51:37;;;;;;;;;;;;;;;25.84;48.38;100110.72;1683616;84;20132;-81
2021/07/22 07:54:06;;;;;;;43.40;8.15;;;;;;;25.60;48.20;100105.59;1679199;84;20185;-82
2021/07/22 07:56:33;;;;;;;85.97;12.47;;;;;;;25.16;48.43;100115.02;1644847;84;21042;-81
2021/07/22 07:59:00;;;;;;;51.40;9.70;;;;;;;24.76;48.10;100113.70;1682344;84;21657;-83
2021/07/22 08:01:29;;;;;;;35.38;9.90;;;;;;;24.57;48.85;100111.20;1664151;84;23188;-81
2021/07/22 08:03:59;;;;;;;34.65;8.78;;;;;;;24.60;48.67;100112.23;1640430;84;21080;-80
2021/07/22 08:06:26;;;;;;;48.28;9.73;;;;;;;24.48;48.59;100113.47;1609199;86;21014;-81
2021/07/22 08:08:57;;;;;;;196.80;23.05;;;;;;;24.44;49.08;100110.74;1630667;85;21053;-77
2021/07/22 08:11:21;;;;;;;85.12;14.05;;;;;;;24.67;49.00;100103.93;1629472;86;21555;-78
2021/07/22 08:13:48;;;;;;;61.50;11.03;;;;;;;24.73;48.77;100102.00;1629280;86;21081;-80
2021/07/22 08:16:17;;;;;;;42.55;9.90;;;;;;;25.05;49.17;100111.24;1631889;85;21775;-79
2021/07/22 08:18:46;;;;;;;26.45;9.60;;;;;;;25.37;48.94;100103.94;1608840;86;21073;-79
2021/07/22 08:21:13;;;;;;;42.48;8.93;;;;;;;25.59;48.78;100109.74;1631120;86;21110;-81
2021/07/22 08:23:40;;;;;;;21.57;7.40;;;;;;;25.76;48.81;100105.30;1633552;86;21009;-79
2021/07/22 08:26:07;;;;;;;31.25;8.35;;;;;;;25.95;48.66;100101.05;1629954;86;22345;-79
2021/07/22 08:28:35;;;;;;;21.82;7.20;;;;;;;25.93;48.41;100101.70;1630412;86;21084;-79
2021/07/22 08:31:03;;;;;;;10.45;6.62;;;;;;;25.77;47.95;100097.63;1608721;87;21016;-81
2021/07/22 08:33:31;;;;;;;19.70;7.85;;;;;;;25.63;48.14;100095.91;1626627;86;21075;-79
2021/07/22 08:35:58;;;;;;;45.03;9.95;;;;;;;25.74;48.29;100099.27;1628521;86;21077;-83
2021/07/22 08:38:24;;;;;;;;;;;;;;;25.91;48.57;100105.06;1627838;87;21145;-83
2021/07/22 08:40:50;;;;;;;31.55;9.28;;;;;;;26.24;48.02;100095.77;1633857;85;20143;-79
2021/07/22 08:43:17;;;;;;;;;;;;;;;26.27;47.87;100096.77;1584806;89;21030;-80
2021/07/22 08:45:48;;;;;;;;;;;;;;;26.02;47.69;100091.39;1613586;87;20147;-80
2021/07/22 08:48:15;;;;;;;15.32;8.05;;;;;;;26.04;47.60;100093.38;1606882;87;20209;-80
2021/07/22 08:50:45;;;;;;;17.98;7.67;;;;;;;25.97;47.77;100099.06;1605778;87;21085;-84
2021/07/22 08:53:15;;;;;;;20.35;8.13;;;;;;;26.02;47.50;100099.41;1599923;87;21089;-82
2021/07/22 08:55:45;;;;;;;41.50;8.30;;;;;;;25.87;47.41;100094.34;1604784;87;21065;-82
2021/07/22 08:58:12;;;;;;;21.82;7.50;;;;;;;25.72;47.48;100096.77;1638937;85;21147;-79
2021/07/22 09:00:39;;;;;;;34.10;9.45;;;;;;;25.67;47.60;100095.91;1633792;84;21053;-84
2021/07/22 09:03:11;;;;;;;;;;;;;;;25.56;47.17;100097.53;1655188;84;21586;-84
2021/07/22 09:05:39;;;;;;;12.33;7.00;;;;;;;25.35;47.23;100097.11;1639166;85;20392;-83
2021/07/22 09:08:06;;;;;;;15.88;7.15;;;;;;;25.38;47.63;100092.78;1663322;84;21069;-82
2021/07/22 09:10:32;;;;;;;;;;;;;;;25.65;47.57;100093.91;1662778;84;20967;-84
2021/07/22 09:12:59;;;;;;;47.08;7.58;;;;;;;25.83;47.17;100087.65;1661309;84;20157;-86
2021/07/22 09:15:28;;;;;;;;;;;;;;;25.81;47.33;100090.95;1662243;84;21286;-81
2021/07/22 09:17:56;;;;;;;84.13;11.85;;;;;;;25.91;47.21;100090.36;1663341;84;20260;-79
2021/07/22 09:20:31;;;;;;;25.08;7.22;;;;;;;25.99;47.02;100081.02;1663785;84;21066;-83
2021/07/22 09:23:01;;;;;;;12.33;6.20;;;;;;;26.12;47.08;100081.86;1661731;84;21535;-82
2021/07/22 09:25:41;;;;;;;33.25;7.75;;;;;;;26.21;47.08;100085.39;1661386;84;21352;-82
2021/07/22 09:28:10;;;;;;;9.58;6.25;;;;;;;26.32;46.88;100082.39;1664565;84;21090;-84
2021/07/22 09:30:37;;;;;;;9.23;5.87;;;;;;;26.19;46.33;100079.38;1663288;83;21959;-84
2021/07/22 09:33:05;;;;;;;;;;;;;;;25.92;46.72;100083.99;1659724;84;21033;-87
2021/07/22 09:35:37;;;;;;;16.15;6.30;;;;;;;26.15;46.58;100080.70;1661969;84;20094;-84
2021/07/22 09:38:10;;;;;;;10.82;5.70;;;;;;;26.11;46.52;100068.16;1659831;84;21077;-79
2021/07/22 09:40:37;;;;;;;45.33;8.80;;;;;;;26.03;46.48;100082.34;1659778;84;21140;-78
2021/07/22 09:43:05;;;;;;;14.10;6.40;;;;;;;25.94;46.53;100080.66;1638038;84;21601;-76
2021/07/22 09:45:35;;;;;;;14.30;6.33;;;;;;;25.87;46.36;100091.16;1662236;84;21061;-79
2021/07/22 09:48:13;;;;;;;12.63;6.37;;;;;;;25.60;45.92;100093.55;1661004;84;21512;-78
2021/07/22 09:50:43;;;;;;;30.97;7.95;;;;;;;25.38;46.14;100084.25;1655759;84;20954;-80
2021/07/22 09:53:13;;;;;;;12.18;6.92;;;;;;;25.44;46.46;100093.47;1636850;84;21089;-80
2021/07/22 09:55:42;;;;;;;9.03;6.35;;;;;;;25.49;46.26;100091.16;1660749;84;21021;-79
2021/07/22 09:58:12;;;;;;;12.15;6.42;;;;;;;25.37;46.12;100095.09;1638862;85;21072;-79
2021/07/22 10:00:49;;;;;;;23.73;7.12;;;;;;;25.35;46.23;100091.77;1640647;84;21057;-79
2021/07/22 10:03:19;;;;;;;22.65;7.30;;;;;;;25.33;46.23;100084.39;1659785;84;20982;-81
2021/07/22 10:05:52;;;;;;;32.95;9.30;;;;;;;25.17;46.25;100096.65;1649816;85;21298;-80
2021/07/22 10:08:22;;;;;;;73.80;11.85;;;;;;;25.18;46.43;100086.32;1650630;85;21561;-77
2021/07/22 10:10:56;;;;;;;196.78;21.25;;;;;;;25.15;46.10;100098.66;1639914;85;21083;-84
2021/07/22 10:13:35;;;;;;;25.60;8.00;;;;;;;25.07;46.20;100096.41;1582869;86;21078;-78
2021/07/22 10:16:06;;;;;;;29.98;8.38;;;;;;;25.01;46.50;100095.17;1627226;86;20975;-82
2021/07/22 10:18:37;;;;;;;30.72;7.67;;;;;;;25.07;46.33;100089.23;1651199;85;21311;-81
2021/07/22 10:21:04;;;;;;;33.70;9.08;;;;;;;25.03;46.35;100087.84;1657092;84;21034;-79
2021/07/22 10:23:31;;;;;;;23.80;7.10;;;;;;;25.04;46.44;100088.20;1627383;86;21040;-83
2021/07/22 10:25:58;;;;;;;19.75;7.50;;;;;;;24.96;45.90;100086.81;1652168;85;21608;-80
2021/07/22 10:28:27;;;;;;;47.83;7.83;;;;;;;24.78;46.36;100088.16;1658964;84;21469;-79
2021/07/22 10:30:56;;;;;;;14.65;6.20;;;;;;;24.86;46.03;100092.23;1667813;85;21093;-80
2021/07/22 10:33:25;;;;;;;68.55;10.28;;;;;;;24.81;46.01;100091.03;1661363;85;21008;-83
2021/07/22 10:35:54;;;;;;;70.72;8.53;;;;;;;24.92;46.48;100092.11;1659441;85;21061;-82
2021/07/22 10:38:23;;;;;;;39.50;9.25;;;;;;;25.30;46.30;100084.72;1662182;85;21023;-82
2021/07/22 10:40:57;;;;;;;10.45;6.60;;;;;;;25.45;46.37;100079.09;1631043;85;21081;-78
2021/07/22 10:43:44;;;;;;;35.40;7.72;;;;;;;25.60;46.17;100084.20;1626267;86;21132;-77
2021/07/22 10:46:17;;;;;;;21.77;5.97;;;;;;;25.42;45.77;100074.07;1667720;85;20983;-77
2021/07/22 10:48:45;;;;;;;49.13;8.85;;;;;;;25.17;45.71;100073.94;1639128;85;20970;-79
2021/07/22 10:51:16;;;;;;;43.92;8.43;;;;;;;24.89;45.64;100083.08;1640034;85;21090;-79
2021/07/22 10:53:54;;;;;;;25.20;6.62;;;;;;;24.42;45.53;100072.66;1663175;85;21084;-76
2021/07/22 10:56:44;;;;;;;31.20;8.30;;;;;;;24.12;45.72;100070.22;1637877;85;21096;-78
2021/07/22 10:59:11;;;;;;;38.70;7.78;;;;;;;23.78;45.65;100076.69;1661680;85;20983;-81
2021/07/22 11:01:50;;;;;;;27.60;7.25;;;;;;;23.41;45.83;100070.88;1664549;85;20994;-78
2021/07/22 11:04:39;;;;;;;24.20;7.47;;;;;;;23.35;45.97;100072.77;1659630;84;21777;-80
2021/07/22 11:07:07;;;;;;;12.73;6.15;;;;;;;23.18;45.91;100069.55;1684261;84;21891;-77
2021/07/22 11:09:43;;;;;;;32.08;8.23;;;;;;;23.05;46.24;100066.36;1673317;84;21476;-78
2021/07/22 11:12:11;;;;;;;23.60;6.72;;;;;;;23.15;46.55;100063.18;1647713;84;20978;-78
2021/07/22 11:14:38;;;;;;;36.90;8.03;;;;;;;23.34;46.46;100057.78;1671753;84;21059;-80
2021/07/22 11:17:06;;;;;;;40.17;9.88;;;;;;;23.49;46.67;100055.97;1658427;84;20990;-82
2021/07/22 11:19:33;;;;;;;10.70;5.62;;;;;;;23.61;46.39;100054.77;1661064;84;21590;-81
2021/07/22 11:22:00;;;;;;;24.30;6.53;;;;;;;23.48;46.04;100060.46;1660096;84;21484;-83
2021/07/22 11:24:30;;;;;;;;;;;;;;;23.39;46.20;100059.52;1681266;84;20944;-82
2021/07/22 11:26:58;;;;;;;9.33;5.15;;;;;;;23.48;46.55;100058.30;1678185;84;20214;-80